sensor_id;sensor_type;location;lat;lon;timestamp;temperature;humidity
12839;DHT22;6486;51.034;5.262;2023-08-31T00:01:49;14.80;72.90
12839;DHT22;6486;51.034;5.262;2023-08-31T00:04:14;14.80;72.90
12839;DHT22;6486;51.034;5.262;2023-08-31T00:06:43;14.80;73.00
12839;DHT22;6486;51.034;5.262;2023-08-31T00:09:11;14.80;73.00
12839;DHT22;6486;51.034;5.262;2023-08-31T00:11:37;14.70;72.90
12839;DHT22;6486;51.034;5.262;2023-08-31T00:14:03;14.70;72.90
12839;DHT22;6486;51.034;5.262;2023-08-31T00:16:28;14.70;72.80
12839;DHT22;6486;51.034;5.262;2023-08-31T00:18:56;14.60;72.80
12839;DHT22;6486;51.034;5.262;2023-08-31T00:21:22;14.60;73.00
12839;DHT22;6486;51.034;5.262;2023-08-31T00:23:48;14.60;73.10
12839;DHT22;6486;51.034;5.262;2023-08-31T00:26:14;14.50;73.00
12839;DHT22;6486;51.034;5.262;2023-08-31T00:28:40;14.50;73.10
12839;DHT22;6486;51.034;5.262;2023-08-31T00:31:08;14.50;73.10
12839;DHT22;6486;51.034;5.262;2023-08-31T00:33:34;14.50;73.10
12839;DHT22;6486;51.034;5.262;2023-08-31T00:36:03;14.50;73.10
12839;DHT22;6486;51.034;5.262;2023-08-31T00:38:29;14.50;73.20
12839;DHT22;6486;51.034;5.262;2023-08-31T00:40:55;14.50;73.20
12839;DHT22;6486;51.034;5.262;2023-08-31T00:43:21;14.40;73.00
12839;DHT22;6486;51.034;5.262;2023-08-31T00:45:51;14.40;73.00
12839;DHT22;6486;51.034;5.262;2023-08-31T00:48:17;14.40;73.00
12839;DHT22;6486;51.034;5.262;2023-08-31T00:50:47;14.40;73.00
12839;DHT22;6486;51.034;5.262;2023-08-31T00:53:14;14.40;73.00
12839;DHT22;6486;51.034;5.262;2023-08-31T00:55:40;14.40;73.00
12839;DHT22;6486;51.034;5.262;2023-08-31T00:58:07;14.30;72.90
12839;DHT22;6486;51.034;5.262;2023-08-31T01:00:47;14.30;72.90
12839;DHT22;6486;51.034;5.262;2023-08-31T01:09:21;14.20;72.90
12839;DHT22;6486;51.034;5.262;2023-08-31T01:11:48;14.20;72.90
12839;DHT22;6486;51.034;5.262;2023-08-31T01:14:17;14.20;72.90
12839;DHT22;6486;51.034;5.262;2023-08-31T01:16:47;14.10;72.90
12839;DHT22;6486;51.034;5.262;2023-08-31T01:19:43;14.10;72.80
12839;DHT22;6486;51.034;5.262;2023-08-31T01:22:13;14.10;72.90
12839;DHT22;6486;51.034;5.262;2023-08-31T01:24:42;14.10;73.00
12839;DHT22;6486;51.034;5.262;2023-08-31T01:27:08;14.10;73.10
12839;DHT22;6486;51.034;5.262;2023-08-31T01:29:35;14.00;73.00
12839;DHT22;6486;51.034;5.262;2023-08-31T01:32:00;14.00;73.00
12839;DHT22;6486;51.034;5.262;2023-08-31T01:34:30;14.00;73.10
12839;DHT22;6486;51.034;5.262;2023-08-31T01:36:59;14.00;73.10
12839;DHT22;6486;51.034;5.262;2023-08-31T01:39:33;14.00;73.20
12839;DHT22;6486;51.034;5.262;2023-08-31T01:42:03;13.90;73.30
12839;DHT22;6486;51.034;5.262;2023-08-31T01:44:32;13.90;73.20
12839;DHT22;6486;51.034;5.262;2023-08-31T01:47:05;13.90;73.20
12839;DHT22;6486;51.034;5.262;2023-08-31T01:49:38;13.90;73.20
12839;DHT22;6486;51.034;5.262;2023-08-31T01:52:05;13.90;73.30
12839;DHT22;6486;51.034;5.262;2023-08-31T01:54:31;13.80;73.30
12839;DHT22;6486;51.034;5.262;2023-08-31T01:56:57;13.80;73.50
12839;DHT22;6486;51.034;5.262;2023-08-31T01:59:22;13.80;73.60
12839;DHT22;6486;51.034;5.262;2023-08-31T02:01:48;13.70;73.60
12839;DHT22;6486;51.034;5.262;2023-08-31T02:04:14;13.70;73.70
12839;DHT22;6486;51.034;5.262;2023-08-31T02:06:39;13.70;73.80
12839;DHT22;6486;51.034;5.262;2023-08-31T02:09:06;13.70;73.90
12839;DHT22;6486;51.034;5.262;2023-08-31T02:11:31;13.60;74.00
12839;DHT22;6486;51.034;5.262;2023-08-31T02:14:00;13.60;74.20
12839;DHT22;6486;51.034;5.262;2023-08-31T02:16:26;13.60;74.30
12839;DHT22;6486;51.034;5.262;2023-08-31T02:18:51;13.60;74.40
12839;DHT22;6486;51.034;5.262;2023-08-31T02:21:17;13.60;74.40
12839;DHT22;6486;51.034;5.262;2023-08-31T02:23:43;13.60;74.40
12839;DHT22;6486;51.034;5.262;2023-08-31T02:26:11;13.60;74.50
12839;DHT22;6486;51.034;5.262;2023-08-31T02:28:37;13.60;74.50
12839;DHT22;6486;51.034;5.262;2023-08-31T02:31:03;13.50;74.70
12839;DHT22;6486;51.034;5.262;2023-08-31T02:33:28;13.50;74.70
12839;DHT22;6486;51.034;5.262;2023-08-31T02:35:54;13.50;74.90
12839;DHT22;6486;51.034;5.262;2023-08-31T02:38:21;13.50;74.90
12839;DHT22;6486;51.034;5.262;2023-08-31T02:40:47;13.40;74.90
12839;DHT22;6486;51.034;5.262;2023-08-31T02:43:13;13.40;75.00
12839;DHT22;6486;51.034;5.262;2023-08-31T02:45:39;13.40;75.20
12839;DHT22;6486;51.034;5.262;2023-08-31T02:48:06;13.40;75.20
12839;DHT22;6486;51.034;5.262;2023-08-31T02:50:34;13.40;75.10
12839;DHT22;6486;51.034;5.262;2023-08-31T02:52:59;13.40;75.20
12839;DHT22;6486;51.034;5.262;2023-08-31T02:55:25;13.40;75.20
12839;DHT22;6486;51.034;5.262;2023-08-31T02:57:51;13.40;75.10
12839;DHT22;6486;51.034;5.262;2023-08-31T03:00:16;13.40;75.10
12839;DHT22;6486;51.034;5.262;2023-08-31T03:02:49;13.40;75.10
12839;DHT22;6486;51.034;5.262;2023-08-31T03:05:18;13.40;75.10
12839;DHT22;6486;51.034;5.262;2023-08-31T03:07:44;13.40;75.10
12839;DHT22;6486;51.034;5.262;2023-08-31T03:10:10;13.40;75.10
12839;DHT22;6486;51.034;5.262;2023-08-31T03:12:36;13.40;75.10
12839;DHT22;6486;51.034;5.262;2023-08-31T03:15:02;13.40;75.10
12839;DHT22;6486;51.034;5.262;2023-08-31T03:17:28;13.40;75.10
12839;DHT22;6486;51.034;5.262;2023-08-31T03:19:53;13.40;75.10
12839;DHT22;6486;51.034;5.262;2023-08-31T03:22:19;13.40;75.10
12839;DHT22;6486;51.034;5.262;2023-08-31T03:24:44;13.40;75.10
12839;DHT22;6486;51.034;5.262;2023-08-31T03:27:10;13.40;75.10
12839;DHT22;6486;51.034;5.262;2023-08-31T03:29:36;13.40;75.10
12839;DHT22;6486;51.034;5.262;2023-08-31T03:32:01;13.40;75.10
12839;DHT22;6486;51.034;5.262;2023-08-31T03:34:30;13.40;75.10
12839;DHT22;6486;51.034;5.262;2023-08-31T03:36:57;13.30;75.10
12839;DHT22;6486;51.034;5.262;2023-08-31T03:39:24;13.40;75.20
12839;DHT22;6486;51.034;5.262;2023-08-31T03:41:49;13.30;75.20
12839;DHT22;6486;51.034;5.262;2023-08-31T03:44:15;13.30;75.20
12839;DHT22;6486;51.034;5.262;2023-08-31T03:46:40;13.30;75.20
12839;DHT22;6486;51.034;5.262;2023-08-31T03:49:06;13.30;75.20
12839;DHT22;6486;51.034;5.262;2023-08-31T03:51:32;13.30;75.30
12839;DHT22;6486;51.034;5.262;2023-08-31T03:53:57;13.30;75.30
12839;DHT22;6486;51.034;5.262;2023-08-31T03:56:23;13.30;75.40
12839;DHT22;6486;51.034;5.262;2023-08-31T03:58:49;13.30;75.40
12839;DHT22;6486;51.034;5.262;2023-08-31T04:01:14;13.30;75.40
12839;DHT22;6486;51.034;5.262;2023-08-31T04:03:42;13.30;75.40
12839;DHT22;6486;51.034;5.262;2023-08-31T04:06:07;13.20;75.40
12839;DHT22;6486;51.034;5.262;2023-08-31T04:08:33;13.20;75.30
12839;DHT22;6486;51.034;5.262;2023-08-31T04:10:59;13.20;75.30
12839;DHT22;6486;51.034;5.262;2023-08-31T04:13:25;13.20;75.30
12839;DHT22;6486;51.034;5.262;2023-08-31T04:15:52;13.20;75.30
12839;DHT22;6486;51.034;5.262;2023-08-31T04:18:18;13.20;75.40
12839;DHT22;6486;51.034;5.262;2023-08-31T04:20:49;13.20;75.40
12839;DHT22;6486;51.034;5.262;2023-08-31T04:23:15;13.20;75.40
12839;DHT22;6486;51.034;5.262;2023-08-31T04:25:41;13.20;75.40
12839;DHT22;6486;51.034;5.262;2023-08-31T04:28:07;13.20;75.40
12839;DHT22;6486;51.034;5.262;2023-08-31T04:30:33;13.20;75.40
12839;DHT22;6486;51.034;5.262;2023-08-31T04:32:59;13.20;75.40
12839;DHT22;6486;51.034;5.262;2023-08-31T04:35:24;13.20;75.40
12839;DHT22;6486;51.034;5.262;2023-08-31T04:37:50;13.20;75.40
12839;DHT22;6486;51.034;5.262;2023-08-31T04:40:16;13.20;75.40
12839;DHT22;6486;51.034;5.262;2023-08-31T04:42:42;13.20;75.40
12839;DHT22;6486;51.034;5.262;2023-08-31T04:45:08;13.20;75.40
12839;DHT22;6486;51.034;5.262;2023-08-31T04:47:34;13.20;75.40
12839;DHT22;6486;51.034;5.262;2023-08-31T04:49:59;13.20;75.40
12839;DHT22;6486;51.034;5.262;2023-08-31T04:52:25;13.10;75.40
12839;DHT22;6486;51.034;5.262;2023-08-31T04:54:51;13.10;75.40
12839;DHT22;6486;51.034;5.262;2023-08-31T04:57:16;13.10;75.40
12839;DHT22;6486;51.034;5.262;2023-08-31T04:59:42;13.10;75.30
12839;DHT22;6486;51.034;5.262;2023-08-31T05:02:08;13.10;75.20
12839;DHT22;6486;51.034;5.262;2023-08-31T05:04:33;13.10;75.20
12839;DHT22;6486;51.034;5.262;2023-08-31T05:06:59;13.10;75.20
12839;DHT22;6486;51.034;5.262;2023-08-31T05:09:25;13.10;75.20
12839;DHT22;6486;51.034;5.262;2023-08-31T05:11:51;13.10;75.90
12839;DHT22;6486;51.034;5.262;2023-08-31T05:14:16;13.10;75.20
12839;DHT22;6486;51.034;5.262;2023-08-31T05:16:42;13.10;75.20
12839;DHT22;6486;51.034;5.262;2023-08-31T05:19:08;13.10;75.20
12839;DHT22;6486;51.034;5.262;2023-08-31T05:21:34;13.10;75.20
12839;DHT22;6486;51.034;5.262;2023-08-31T05:24:00;13.10;75.20
12839;DHT22;6486;51.034;5.262;2023-08-31T05:26:25;13.10;75.20
12839;DHT22;6486;51.034;5.262;2023-08-31T05:28:51;13.10;75.20
12839;DHT22;6486;51.034;5.262;2023-08-31T05:31:16;13.10;75.20
12839;DHT22;6486;51.034;5.262;2023-08-31T05:33:42;13.10;75.30
12839;DHT22;6486;51.034;5.262;2023-08-31T05:36:08;13.10;75.40
12839;DHT22;6486;51.034;5.262;2023-08-31T05:38:34;13.10;75.40
12839;DHT22;6486;51.034;5.262;2023-08-31T05:41:09;13.20;75.50
12839;DHT22;6486;51.034;5.262;2023-08-31T05:43:36;13.20;75.40
12839;DHT22;6486;51.034;5.262;2023-08-31T05:46:02;13.20;75.40
12839;DHT22;6486;51.034;5.262;2023-08-31T05:48:28;13.30;75.60
12839;DHT22;6486;51.034;5.262;2023-08-31T05:50:54;13.20;75.60
12839;DHT22;6486;51.034;5.262;2023-08-31T05:53:20;13.30;75.80
12839;DHT22;6486;51.034;5.262;2023-08-31T05:55:47;13.30;75.80
12839;DHT22;6486;51.034;5.262;2023-08-31T05:58:12;13.40;75.90
12839;DHT22;6486;51.034;5.262;2023-08-31T06:00:38;13.40;76.00
12839;DHT22;6486;51.034;5.262;2023-08-31T06:03:04;13.50;76.00
12839;DHT22;6486;51.034;5.262;2023-08-31T06:05:31;13.60;76.00
12839;DHT22;6486;51.034;5.262;2023-08-31T06:07:57;13.70;76.10
12839;DHT22;6486;51.034;5.262;2023-08-31T06:10:23;13.70;76.20
12839;DHT22;6486;51.034;5.262;2023-08-31T06:12:49;13.80;76.40
12839;DHT22;6486;51.034;5.262;2023-08-31T06:15:16;13.90;76.60
12839;DHT22;6486;51.034;5.262;2023-08-31T06:17:42;13.90;77.00
12839;DHT22;6486;51.034;5.262;2023-08-31T06:20:09;13.90;77.30
12839;DHT22;6486;51.034;5.262;2023-08-31T06:22:34;14.00;77.60
12839;DHT22;6486;51.034;5.262;2023-08-31T06:25:00;14.00;77.70
12839;DHT22;6486;51.034;5.262;2023-08-31T06:27:26;14.10;77.80
12839;DHT22;6486;51.034;5.262;2023-08-31T06:29:52;14.20;77.80
12839;DHT22;6486;51.034;5.262;2023-08-31T06:32:17;14.20;77.70
12839;DHT22;6486;51.034;5.262;2023-08-31T06:34:44;14.30;77.80
12839;DHT22;6486;51.034;5.262;2023-08-31T06:37:09;14.40;77.80
12839;DHT22;6486;51.034;5.262;2023-08-31T06:39:35;14.50;77.90
12839;DHT22;6486;51.034;5.262;2023-08-31T06:42:02;14.50;78.20
12839;DHT22;6486;51.034;5.262;2023-08-31T06:44:29;14.50;78.20
12839;DHT22;6486;51.034;5.262;2023-08-31T06:46:55;14.60;78.40
12839;DHT22;6486;51.034;5.262;2023-08-31T06:49:22;14.70;78.40
12839;DHT22;6486;51.034;5.262;2023-08-31T06:51:48;14.80;78.60
12839;DHT22;6486;51.034;5.262;2023-08-31T06:54:13;14.80;78.50
12839;DHT22;6486;51.034;5.262;2023-08-31T06:56:39;14.90;78.40
12839;DHT22;6486;51.034;5.262;2023-08-31T06:59:05;15.00;78.40
12839;DHT22;6486;51.034;5.262;2023-08-31T07:01:31;15.10;78.60
12839;DHT22;6486;51.034;5.262;2023-08-31T07:03:58;15.20;78.60
12839;DHT22;6486;51.034;5.262;2023-08-31T07:06:24;15.30;78.50
12839;DHT22;6486;51.034;5.262;2023-08-31T07:08:50;15.40;78.70
12839;DHT22;6486;51.034;5.262;2023-08-31T07:11:16;15.50;78.60
12839;DHT22;6486;51.034;5.262;2023-08-31T07:13:42;15.60;78.80
12839;DHT22;6486;51.034;5.262;2023-08-31T07:16:08;15.60;78.60
12839;DHT22;6486;51.034;5.262;2023-08-31T07:18:36;15.70;78.70
12839;DHT22;6486;51.034;5.262;2023-08-31T07:21:01;15.90;78.70
12839;DHT22;6486;51.034;5.262;2023-08-31T07:23:27;15.90;78.60
12839;DHT22;6486;51.034;5.262;2023-08-31T07:25:56;16.00;78.60
12839;DHT22;6486;51.034;5.262;2023-08-31T07:28:23;16.10;78.70
12839;DHT22;6486;51.034;5.262;2023-08-31T07:30:49;16.20;78.60
12839;DHT22;6486;51.034;5.262;2023-08-31T07:33:14;16.20;78.50
12839;DHT22;6486;51.034;5.262;2023-08-31T07:35:40;16.40;78.70
12839;DHT22;6486;51.034;5.262;2023-08-31T07:38:05;16.40;78.60
12839;DHT22;6486;51.034;5.262;2023-08-31T07:40:31;16.50;78.50
12839;DHT22;6486;51.034;5.262;2023-08-31T07:42:57;16.60;78.30
12839;DHT22;6486;51.034;5.262;2023-08-31T07:45:22;16.70;78.10
12839;DHT22;6486;51.034;5.262;2023-08-31T07:47:48;16.80;77.90
12839;DHT22;6486;51.034;5.262;2023-08-31T07:50:14;17.00;77.90
12839;DHT22;6486;51.034;5.262;2023-08-31T07:52:40;17.10;77.60
12839;DHT22;6486;51.034;5.262;2023-08-31T07:55:06;17.20;77.60
12839;DHT22;6486;51.034;5.262;2023-08-31T07:57:32;17.30;77.40
12839;DHT22;6486;51.034;5.262;2023-08-31T07:59:57;17.40;77.20
12839;DHT22;6486;51.034;5.262;2023-08-31T08:02:23;17.50;77.00
12839;DHT22;6486;51.034;5.262;2023-08-31T08:04:48;17.70;77.00
12839;DHT22;6486;51.034;5.262;2023-08-31T08:07:14;17.80;76.90
12839;DHT22;6486;51.034;5.262;2023-08-31T08:09:40;17.90;76.60
12839;DHT22;6486;51.034;5.262;2023-08-31T08:12:06;18.00;76.40
12839;DHT22;6486;51.034;5.262;2023-08-31T08:14:33;18.10;76.20
12839;DHT22;6486;51.034;5.262;2023-08-31T08:16:58;18.20;75.80
12839;DHT22;6486;51.034;5.262;2023-08-31T08:19:24;18.30;75.60
12839;DHT22;6486;51.034;5.262;2023-08-31T08:21:50;18.40;75.50
12839;DHT22;6486;51.034;5.262;2023-08-31T08:24:16;18.50;75.30
12839;DHT22;6486;51.034;5.262;2023-08-31T08:26:42;18.50;74.80
12839;DHT22;6486;51.034;5.262;2023-08-31T08:29:07;18.70;74.70
12839;DHT22;6486;51.034;5.262;2023-08-31T08:31:33;18.80;74.60
12839;DHT22;6486;51.034;5.262;2023-08-31T08:33:59;18.80;74.50
12839;DHT22;6486;51.034;5.262;2023-08-31T08:36:25;19.00;74.60
12839;DHT22;6486;51.034;5.262;2023-08-31T08:38:51;19.20;74.40
12839;DHT22;6486;51.034;5.262;2023-08-31T08:41:22;19.30;74.20
12839;DHT22;6486;51.034;5.262;2023-08-31T08:43:48;19.50;73.70
12839;DHT22;6486;51.034;5.262;2023-08-31T08:46:15;19.50;73.00
12839;DHT22;6486;51.034;5.262;2023-08-31T08:48:41;19.40;72.70
12839;DHT22;6486;51.034;5.262;2023-08-31T08:51:09;19.40;72.90
12839;DHT22;6486;51.034;5.262;2023-08-31T08:53:35;19.40;73.00
12839;DHT22;6486;51.034;5.262;2023-08-31T08:56:00;19.50;72.70
12839;DHT22;6486;51.034;5.262;2023-08-31T08:58:26;19.40;72.80
12839;DHT22;6486;51.034;5.262;2023-08-31T09:00:54;19.30;72.50
12839;DHT22;6486;51.034;5.262;2023-08-31T09:03:21;19.20;72.60
12839;DHT22;6486;51.034;5.262;2023-08-31T09:05:47;19.20;72.60
12839;DHT22;6486;51.034;5.262;2023-08-31T09:08:13;19.30;71.90
12839;DHT22;6486;51.034;5.262;2023-08-31T09:10:44;19.40;71.50
12839;DHT22;6486;51.034;5.262;2023-08-31T09:13:12;19.40;71.50
12839;DHT22;6486;51.034;5.262;2023-08-31T09:15:48;19.40;71.30
12839;DHT22;6486;51.034;5.262;2023-08-31T09:20:47;19.60;70.60
12839;DHT22;6486;51.034;5.262;2023-08-31T09:23:16;19.80;70.70
12839;DHT22;6486;51.034;5.262;2023-08-31T09:25:50;19.80;71.30
12839;DHT22;6486;51.034;5.262;2023-08-31T09:28:18;20.10;70.60
12839;DHT22;6486;51.034;5.262;2023-08-31T09:30:46;20.10;70.50
12839;DHT22;6486;51.034;5.262;2023-08-31T09:33:15;20.20;70.40
12839;DHT22;6486;51.034;5.262;2023-08-31T09:38:15;20.30;69.60
12839;DHT22;6486;51.034;5.262;2023-08-31T09:40:40;20.50;69.40
12839;DHT22;6486;51.034;5.262;2023-08-31T09:43:07;20.70;69.10
12839;DHT22;6486;51.034;5.262;2023-08-31T09:45:34;20.90;68.70
12839;DHT22;6486;51.034;5.262;2023-08-31T09:48:02;20.70;68.40
12839;DHT22;6486;51.034;5.262;2023-08-31T09:50:33;20.70;67.70
12839;DHT22;6486;51.034;5.262;2023-08-31T09:53:04;20.90;67.80
12839;DHT22;6486;51.034;5.262;2023-08-31T09:55:31;21.00;68.10
12839;DHT22;6486;51.034;5.262;2023-08-31T09:57:59;20.90;67.50
12839;DHT22;6486;51.034;5.262;2023-08-31T10:00:32;20.70;66.60
12839;DHT22;6486;51.034;5.262;2023-08-31T10:03:03;20.50;66.80
12839;DHT22;6486;51.034;5.262;2023-08-31T10:05:29;20.70;67.20
12839;DHT22;6486;51.034;5.262;2023-08-31T10:07:55;21.00;67.00
12839;DHT22;6486;51.034;5.262;2023-08-31T10:10:21;21.10;66.60
12839;DHT22;6486;51.034;5.262;2023-08-31T10:12:51;21.30;66.70
12839;DHT22;6486;51.034;5.262;2023-08-31T10:15:18;21.40;66.90
12839;DHT22;6486;51.034;5.262;2023-08-31T10:17:45;21.60;66.50
12839;DHT22;6486;51.034;5.262;2023-08-31T10:20:16;21.60;66.20
12839;DHT22;6486;51.034;5.262;2023-08-31T10:22:42;21.40;66.40
12839;DHT22;6486;51.034;5.262;2023-08-31T10:25:09;21.30;66.70
12839;DHT22;6486;51.034;5.262;2023-08-31T10:27:44;21.20;66.50
12839;DHT22;6486;51.034;5.262;2023-08-31T10:38:24;20.70;66.60
12839;DHT22;6486;51.034;5.262;2023-08-31T10:41:17;20.80;65.90
12839;DHT22;6486;51.034;5.262;2023-08-31T10:46:31;20.80;65.40
12839;DHT22;6486;51.034;5.262;2023-08-31T10:48:58;20.70;66.00
12839;DHT22;6486;51.034;5.262;2023-08-31T10:51:31;20.60;64.30
12839;DHT22;6486;51.034;5.262;2023-08-31T10:54:21;20.60;64.10
12839;DHT22;6486;51.034;5.262;2023-08-31T10:59:47;20.40;64.20
12839;DHT22;6486;51.034;5.262;2023-08-31T11:02:52;20.40;63.70
12839;DHT22;6486;51.034;5.262;2023-08-31T11:05:18;20.50;63.80
12839;DHT22;6486;51.034;5.262;2023-08-31T11:07:46;20.50;63.90
12839;DHT22;6486;51.034;5.262;2023-08-31T11:12:49;20.50;63.40
12839;DHT22;6486;51.034;5.262;2023-08-31T11:15:17;20.50;63.70
12839;DHT22;6486;51.034;5.262;2023-08-31T11:17:43;20.40;63.50
12839;DHT22;6486;51.034;5.262;2023-08-31T11:20:14;20.60;63.40
12839;DHT22;6486;51.034;5.262;2023-08-31T11:22:41;21.00;62.90
12839;DHT22;6486;51.034;5.262;2023-08-31T11:25:08;21.20;62.40
12839;DHT22;6486;51.034;5.262;2023-08-31T11:27:34;21.10;62.60
12839;DHT22;6486;51.034;5.262;2023-08-31T11:30:00;21.10;62.90
12839;DHT22;6486;51.034;5.262;2023-08-31T11:32:26;21.40;62.90
12839;DHT22;6486;51.034;5.262;2023-08-31T11:34:51;21.40;62.60
12839;DHT22;6486;51.034;5.262;2023-08-31T11:37:17;21.70;62.30
12839;DHT22;6486;51.034;5.262;2023-08-31T11:39:52;22.10;61.20
12839;DHT22;6486;51.034;5.262;2023-08-31T11:42:21;22.40;60.90
12839;DHT22;6486;51.034;5.262;2023-08-31T11:44:51;22.80;60.60
12839;DHT22;6486;51.034;5.262;2023-08-31T11:47:17;23.10;59.20
12839;DHT22;6486;51.034;5.262;2023-08-31T11:49:44;23.40;57.70
12839;DHT22;6486;51.034;5.262;2023-08-31T11:52:12;23.60;56.70
12839;DHT22;6486;51.034;5.262;2023-08-31T11:54:38;23.60;56.40
12839;DHT22;6486;51.034;5.262;2023-08-31T11:57:07;23.40;56.70
12839;DHT22;6486;51.034;5.262;2023-08-31T11:59:38;23.30;57.20
12839;DHT22;6486;51.034;5.262;2023-08-31T12:02:08;23.00;57.10
12839;DHT22;6486;51.034;5.262;2023-08-31T12:04:44;22.80;57.30
12839;DHT22;6486;51.034;5.262;2023-08-31T12:07:10;22.60;57.20
12839;DHT22;6486;51.034;5.262;2023-08-31T12:09:36;22.50;57.50
12839;DHT22;6486;51.034;5.262;2023-08-31T12:12:02;22.40;57.90
12839;DHT22;6486;51.034;5.262;2023-08-31T12:14:30;22.30;57.70
12839;DHT22;6486;51.034;5.262;2023-08-31T12:17:08;22.40;57.80
12839;DHT22;6486;51.034;5.262;2023-08-31T12:19:37;22.50;57.30
12839;DHT22;6486;51.034;5.262;2023-08-31T12:22:05;22.50;57.10
12839;DHT22;6486;51.034;5.262;2023-08-31T12:24:39;22.40;57.40
12839;DHT22;6486;51.034;5.262;2023-08-31T12:27:09;22.50;57.30
12839;DHT22;6486;51.034;5.262;2023-08-31T12:29:35;22.60;57.30
12839;DHT22;6486;51.034;5.262;2023-08-31T12:32:01;22.70;57.60
12839;DHT22;6486;51.034;5.262;2023-08-31T12:34:26;22.70;57.70
12839;DHT22;6486;51.034;5.262;2023-08-31T12:36:52;22.60;57.40
12839;DHT22;6486;51.034;5.262;2023-08-31T12:39:18;22.50;57.50
12839;DHT22;6486;51.034;5.262;2023-08-31T12:41:43;22.40;57.80
12839;DHT22;6486;51.034;5.262;2023-08-31T12:44:09;22.80;58.20
12839;DHT22;6486;51.034;5.262;2023-08-31T12:46:35;23.10;56.80
12839;DHT22;6486;51.034;5.262;2023-08-31T12:49:01;23.40;55.60
12839;DHT22;6486;51.034;5.262;2023-08-31T12:51:29;23.60;54.90
12839;DHT22;6486;51.034;5.262;2023-08-31T12:53:56;23.90;54.80
12839;DHT22;6486;51.034;5.262;2023-08-31T12:56:22;24.00;53.80
12839;DHT22;6486;51.034;5.262;2023-08-31T12:58:51;24.20;53.90
12839;DHT22;6486;51.034;5.262;2023-08-31T13:01:18;24.40;54.20
12839;DHT22;6486;51.034;5.262;2023-08-31T13:03:44;24.50;53.70
12839;DHT22;6486;51.034;5.262;2023-08-31T13:06:10;24.50;53.10
12839;DHT22;6486;51.034;5.262;2023-08-31T13:08:36;24.30;52.70
12839;DHT22;6486;51.034;5.262;2023-08-31T13:11:01;24.30;53.10
12839;DHT22;6486;51.034;5.262;2023-08-31T13:13:29;24.20;53.30
12839;DHT22;6486;51.034;5.262;2023-08-31T13:15:54;24.00;53.40
12839;DHT22;6486;51.034;5.262;2023-08-31T13:18:20;23.60;53.50
12839;DHT22;6486;51.034;5.262;2023-08-31T13:20:53;23.40;53.70
12839;DHT22;6486;51.034;5.262;2023-08-31T13:23:19;23.40;53.40
12839;DHT22;6486;51.034;5.262;2023-08-31T13:25:45;23.60;53.80
12839;DHT22;6486;51.034;5.262;2023-08-31T13:28:12;23.80;53.90
12839;DHT22;6486;51.034;5.262;2023-08-31T13:30:37;23.90;54.00
12839;DHT22;6486;51.034;5.262;2023-08-31T13:33:03;24.00;54.30
12839;DHT22;6486;51.034;5.262;2023-08-31T13:35:35;23.80;52.50
12839;DHT22;6486;51.034;5.262;2023-08-31T13:38:02;23.60;52.50
12839;DHT22;6486;51.034;5.262;2023-08-31T13:40:29;23.50;53.50
12839;DHT22;6486;51.034;5.262;2023-08-31T13:42:56;23.30;53.70
12839;DHT22;6486;51.034;5.262;2023-08-31T13:45:29;23.00;53.10
12839;DHT22;6486;51.034;5.262;2023-08-31T13:47:56;22.80;53.60
12839;DHT22;6486;51.034;5.262;2023-08-31T13:50:21;22.60;54.00
12839;DHT22;6486;51.034;5.262;2023-08-31T13:52:47;22.50;54.60
12839;DHT22;6486;51.034;5.262;2023-08-31T13:55:13;22.60;55.10
12839;DHT22;6486;51.034;5.262;2023-08-31T13:57:41;22.50;55.00
12839;DHT22;6486;51.034;5.262;2023-08-31T14:00:07;22.60;55.60
12839;DHT22;6486;51.034;5.262;2023-08-31T14:02:37;22.60;55.90
12839;DHT22;6486;51.034;5.262;2023-08-31T14:05:03;22.50;55.30
12839;DHT22;6486;51.034;5.262;2023-08-31T14:07:29;22.50;55.80
12839;DHT22;6486;51.034;5.262;2023-08-31T14:09:55;22.40;56.10
12839;DHT22;6486;51.034;5.262;2023-08-31T14:12:21;22.30;55.70
12839;DHT22;6486;51.034;5.262;2023-08-31T14:14:47;22.20;55.40
12839;DHT22;6486;51.034;5.262;2023-08-31T14:17:13;22.10;55.20
12839;DHT22;6486;51.034;5.262;2023-08-31T14:19:38;21.90;55.30
12839;DHT22;6486;51.034;5.262;2023-08-31T14:22:05;21.90;55.60
12839;DHT22;6486;51.034;5.262;2023-08-31T14:24:30;21.90;55.80
12839;DHT22;6486;51.034;5.262;2023-08-31T14:26:56;21.90;55.60
12839;DHT22;6486;51.034;5.262;2023-08-31T14:29:23;21.90;55.80
12839;DHT22;6486;51.034;5.262;2023-08-31T14:31:49;21.90;55.80
12839;DHT22;6486;51.034;5.262;2023-08-31T14:34:14;22.00;56.10
12839;DHT22;6486;51.034;5.262;2023-08-31T14:36:40;22.10;56.00
12839;DHT22;6486;51.034;5.262;2023-08-31T14:39:06;22.20;56.20
12839;DHT22;6486;51.034;5.262;2023-08-31T14:41:31;22.30;56.30
12839;DHT22;6486;51.034;5.262;2023-08-31T14:43:57;22.30;56.10
12839;DHT22;6486;51.034;5.262;2023-08-31T14:46:23;22.30;55.40
12839;DHT22;6486;51.034;5.262;2023-08-31T14:48:50;22.20;54.80
12839;DHT22;6486;51.034;5.262;2023-08-31T14:51:16;22.20;55.10
12839;DHT22;6486;51.034;5.262;2023-08-31T14:53:42;22.10;55.00
12839;DHT22;6486;51.034;5.262;2023-08-31T14:56:08;22.10;54.50
12839;DHT22;6486;51.034;5.262;2023-08-31T14:58:34;21.90;54.50
12839;DHT22;6486;51.034;5.262;2023-08-31T15:01:00;21.90;54.60
12839;DHT22;6486;51.034;5.262;2023-08-31T15:03:26;21.80;54.60
12839;DHT22;6486;51.034;5.262;2023-08-31T15:05:51;21.80;55.00
12839;DHT22;6486;51.034;5.262;2023-08-31T15:08:17;21.80;55.10
12839;DHT22;6486;51.034;5.262;2023-08-31T15:10:43;21.80;55.20
12839;DHT22;6486;51.034;5.262;2023-08-31T15:13:09;21.80;54.90
12839;DHT22;6486;51.034;5.262;2023-08-31T15:15:34;21.70;54.80
12839;DHT22;6486;51.034;5.262;2023-08-31T15:18:00;21.70;55.10
12839;DHT22;6486;51.034;5.262;2023-08-31T15:20:26;21.70;54.80
12839;DHT22;6486;51.034;5.262;2023-08-31T15:22:53;21.60;54.50
12839;DHT22;6486;51.034;5.262;2023-08-31T15:25:19;21.60;54.40
12839;DHT22;6486;51.034;5.262;2023-08-31T15:27:44;21.60;54.80
12839;DHT22;6486;51.034;5.262;2023-08-31T15:30:10;21.60;55.00
12839;DHT22;6486;51.034;5.262;2023-08-31T15:32:36;21.60;54.90
12839;DHT22;6486;51.034;5.262;2023-08-31T15:35:03;21.60;54.60
12839;DHT22;6486;51.034;5.262;2023-08-31T15:37:29;21.50;54.50
12839;DHT22;6486;51.034;5.262;2023-08-31T15:39:55;21.50;54.70
12839;DHT22;6486;51.034;5.262;2023-08-31T15:42:22;21.50;55.00
12839;DHT22;6486;51.034;5.262;2023-08-31T15:44:50;21.60;55.20
12839;DHT22;6486;51.034;5.262;2023-08-31T15:47:18;21.60;55.50
12839;DHT22;6486;51.034;5.262;2023-08-31T15:49:44;21.70;55.60
12839;DHT22;6486;51.034;5.262;2023-08-31T15:52:09;21.70;55.40
12839;DHT22;6486;51.034;5.262;2023-08-31T15:54:35;21.80;55.50
12839;DHT22;6486;51.034;5.262;2023-08-31T15:57:01;22.00;55.80
12839;DHT22;6486;51.034;5.262;2023-08-31T15:59:28;22.40;55.70
12839;DHT22;6486;51.034;5.262;2023-08-31T16:01:53;22.60;55.10
12839;DHT22;6486;51.034;5.262;2023-08-31T16:04:19;22.80;54.70
12839;DHT22;6486;51.034;5.262;2023-08-31T16:06:45;23.10;54.60
12839;DHT22;6486;51.034;5.262;2023-08-31T16:09:10;23.40;54.00
12839;DHT22;6486;51.034;5.262;2023-08-31T16:11:38;23.80;53.70